METAR Rapporter

 

EKOD - Odense/Beldringe, Denmark
Distance from station: NNV 51km
Opdateret: 14/08/2018 12:50
NOT Current
Delvist skyet
Delvist skyet
 Vind retning V
Vind: V 20 km/h
Temperatur: 20°C
Dugpunkt: 18°C
Fugtighed: 88%
Barometer: 1006 hPa
Clouds: Delvist skyet
Visibility: 10 km
Cloud details: Delvist skyet 427 m
2018/08/14 10:50 EKOD 141050Z 27011KT 240V300 9999 SCT014 20/18 Q1006
EKSB - Sonderborg Airpo, Denmark
Distance from station: V 53km
Opdateret: 14/08/2018 21:20
Mest skyet
Mest skyet
 Vind retning V
Vind: V 7 km/h
Temperatur: 19°C
Dugpunkt: 16°C
Fugtighed: 83%
Barometer: 1011 hPa
Clouds: Mest skyet
Visibility: 10 km
Cloud details: Few Clouds 762 m
Mest skyet 2134 m
2018/08/14 19:20 EKSB 141920Z 27004KT 240V340 9999 FEW025 BKN070 19/16 Q1011
 
EKSP - Skrydstrup(Dan-A, Denmark
Distance from station: VNV 88km
Opdateret: 14/08/2018 21:20
Mest skyet
Mest skyet
 Vind retning V
Vind: V 7 km/h
Temperatur: 18°C
Dugpunkt: 16°C
Fugtighed: 88%
Barometer: 1011 hPa
Clouds: Mest skyet
Visibility: 10 km
Cloud details: Few Clouds 457 m
Delvist skyet 1006 m
Mest skyet 1890 m
2018/08/14 19:20 EKSP 141920Z 27004KT 9999 FEW015 SCT033 BKN062 18/16 Q1011
EKVD - Vamdrup (aut/Man, Denmark
Distance from station: VNV 92km
Opdateret: 14/08/2018 21:20

 Vind retning VNV
Vind: VNV 11 km/h
Temperatur: 18°C
Dugpunkt: 15°C
Fugtighed: 83%
Barometer: 1011 hPa
2018/08/14 19:20 EKVD 141920Z AUTO 29006KT //// ///////// 18/15 Q1011